createdAt,value
2023-03-29T00:00:15.882Z,8.70
2023-03-29T00:02:48.605Z,8.60
2023-03-29T00:05:19.237Z,8.70
2023-03-29T00:07:54.445Z,8.70
2023-03-29T00:10:24.160Z,8.60
2023-03-29T00:12:52.999Z,8.60
2023-03-29T00:15:22.164Z,8.50
2023-03-29T00:17:51.184Z,8.30
2023-03-29T00:20:20.152Z,8.20
2023-03-29T00:22:50.357Z,8.20
2023-03-29T00:25:19.281Z,8.30
2023-03-29T00:27:48.124Z,8.30
2023-03-29T00:30:16.803Z,8.40
2023-03-29T00:32:46.127Z,8.40
2023-03-29T00:35:14.985Z,8.50
2023-03-29T00:37:43.814Z,8.50
2023-03-29T00:40:15.451Z,8.40
2023-03-29T00:42:46.566Z,8.30
2023-03-29T00:45:22.887Z,8.30
2023-03-29T00:47:55.704Z,8.40
2023-03-29T00:50:29.761Z,8.30
2023-03-29T00:53:02.616Z,8.30
2023-03-29T00:55:38.681Z,8.30
2023-03-29T00:58:13.036Z,8.30
2023-03-29T01:00:49.873Z,8.30
2023-03-29T01:03:25.347Z,8.30
2023-03-29T01:06:00.157Z,8.30
2023-03-29T01:08:33.483Z,8.40
2023-03-29T01:11:07.361Z,8.40
2023-03-29T01:13:40.546Z,8.50
2023-03-29T01:16:11.711Z,8.40
2023-03-29T01:18:42.030Z,8.50
2023-03-29T01:21:19.508Z,8.40
2023-03-29T01:24:09.330Z,8.40
2023-03-29T01:26:48.840Z,8.40
2023-03-29T01:29:23.645Z,8.40
2023-03-29T01:31:58.420Z,8.30
2023-03-29T01:34:34.358Z,8.30
2023-03-29T01:37:09.568Z,8.10
2023-03-29T01:39:38.351Z,8.00
2023-03-29T01:42:17.260Z,8.00
2023-03-29T01:44:51.064Z,8.00
2023-03-29T01:47:22.008Z,7.90
2023-03-29T01:49:54.569Z,7.90
2023-03-29T01:52:26.490Z,7.90
2023-03-29T01:54:56.175Z,7.80
2023-03-29T01:57:25.663Z,7.80
2023-03-29T01:59:57.704Z,7.90
2023-03-29T02:02:28.383Z,7.90
2023-03-29T02:04:57.766Z,7.90
2023-03-29T02:07:27.678Z,7.90
2023-03-29T02:09:57.468Z,8.00
2023-03-29T02:12:26.060Z,8.00
2023-03-29T02:14:56.674Z,7.90
2023-03-29T02:17:26.112Z,8.00
2023-03-29T02:19:56.435Z,8.20
2023-03-29T02:22:27.778Z,8.20
2023-03-29T02:24:59.267Z,8.20
2023-03-29T02:27:29.169Z,8.40
2023-03-29T02:29:59.489Z,8.40
2023-03-29T02:32:31.496Z,8.30
2023-03-29T02:35:01.643Z,8.30
2023-03-29T02:37:31.372Z,8.30
2023-03-29T02:40:00.182Z,8.30
2023-03-29T02:42:29.637Z,8.40
2023-03-29T02:45:00.651Z,8.30
2023-03-29T02:47:32.049Z,8.30
2023-03-29T02:50:00.897Z,8.20
2023-03-29T02:52:33.573Z,8.20
2023-03-29T02:55:04.237Z,8.30
2023-03-29T02:57:32.666Z,8.30
2023-03-29T03:00:04.659Z,8.30
2023-03-29T03:02:33.631Z,8.20
2023-03-29T03:05:02.106Z,8.20
2023-03-29T03:07:30.716Z,8.20
2023-03-29T03:09:59.149Z,8.10
2023-03-29T03:12:27.572Z,8.10
2023-03-29T03:14:56.010Z,8.10
2023-03-29T03:17:25.937Z,8.10
2023-03-29T03:19:54.326Z,8.00
2023-03-29T03:22:22.808Z,8.10
2023-03-29T03:24:51.198Z,8.10
2023-03-29T03:27:19.591Z,8.10
2023-03-29T03:29:48.679Z,8.00
2023-03-29T03:32:17.533Z,8.00
2023-03-29T03:34:47.352Z,8.00
2023-03-29T03:37:15.823Z,8.00
2023-03-29T03:39:44.386Z,7.90
2023-03-29T03:42:12.882Z,7.90
2023-03-29T03:44:41.332Z,7.90
2023-03-29T03:47:09.749Z,7.90
2023-03-29T03:49:38.060Z,7.90
2023-03-29T03:52:07.948Z,7.90
2023-03-29T03:54:36.360Z,8.10
2023-03-29T03:57:04.876Z,8.20
2023-03-29T03:59:33.722Z,8.30
2023-03-29T04:02:02.181Z,8.40
2023-03-29T04:04:30.975Z,8.30
2023-03-29T04:07:02.841Z,8.40
2023-03-29T04:09:33.367Z,8.20
2023-03-29T04:12:02.679Z,8.20
2023-03-29T04:14:32.253Z,8.20
2023-03-29T04:17:01.492Z,8.00
2023-03-29T04:19:30.090Z,8.10
2023-03-29T04:21:58.513Z,8.00
2023-03-29T04:24:27.054Z,8.00
2023-03-29T04:26:56.831Z,7.90
2023-03-29T04:29:25.276Z,7.90
2023-03-29T04:31:53.691Z,7.80
2023-03-29T04:34:22.164Z,7.80
2023-03-29T04:36:50.961Z,7.90
2023-03-29T04:39:19.399Z,7.90
2023-03-29T04:41:48.562Z,7.90
2023-03-29T04:44:18.508Z,7.90
2023-03-29T04:46:47.018Z,7.90
2023-03-29T04:49:16.352Z,7.90
2023-03-29T04:51:44.823Z,7.90
2023-03-29T04:54:13.211Z,7.90
2023-03-29T04:56:41.679Z,8.00
2023-03-29T04:59:10.235Z,8.00
2023-03-29T05:01:40.494Z,8.00
2023-03-29T05:04:12.531Z,8.10
2023-03-29T05:06:41.504Z,8.10
2023-03-29T05:09:10.637Z,8.10
2023-03-29T05:11:39.093Z,8.10
2023-03-29T05:14:09.315Z,8.10
2023-03-29T05:16:38.181Z,8.20
2023-03-29T05:19:09.237Z,8.20
2023-03-29T05:21:37.834Z,8.30
2023-03-29T05:24:06.587Z,8.40
2023-03-29T05:26:35.554Z,8.40
2023-03-29T05:29:04.599Z,8.50
2023-03-29T05:31:33.138Z,8.60
2023-03-29T05:34:01.524Z,8.70
2023-03-29T05:36:31.435Z,8.80
2023-03-29T05:38:59.955Z,8.80
2023-03-29T05:41:28.627Z,8.80
2023-03-29T05:43:57.099Z,8.70
2023-03-29T05:46:25.512Z,8.80
2023-03-29T05:48:53.854Z,8.90
2023-03-29T05:51:24.481Z,8.90
2023-03-29T05:53:54.639Z,8.90
2023-03-29T05:56:23.423Z,9.00
2023-03-29T05:58:55.103Z,9.00
2023-03-29T06:01:24.583Z,9.00
2023-03-29T06:03:53.710Z,9.10
2023-03-29T06:06:22.541Z,9.10
2023-03-29T06:08:51.873Z,9.20
2023-03-29T06:11:22.368Z,9.30
2023-03-29T06:13:50.998Z,9.40
2023-03-29T06:16:19.961Z,9.60
2023-03-29T06:18:48.819Z,9.60
2023-03-29T06:21:17.429Z,9.70
2023-03-29T06:23:46.183Z,9.80
2023-03-29T06:26:14.724Z,9.70
2023-03-29T06:28:44.574Z,9.80
2023-03-29T06:31:13.163Z,9.80
2023-03-29T06:33:43.263Z,9.90
2023-03-29T06:36:13.848Z,9.90
2023-03-29T06:38:42.893Z,10.00
2023-03-29T06:41:12.292Z,10.10
2023-03-29T06:43:40.846Z,10.30
2023-03-29T06:46:12.360Z,10.50
2023-03-29T06:48:41.119Z,10.80
2023-03-29T06:51:09.524Z,11.00
2023-03-29T06:53:38.089Z,11.20
2023-03-29T06:56:09.472Z,11.30
2023-03-29T06:58:38.247Z,11.40
2023-03-29T07:01:07.206Z,11.60
2023-03-29T07:03:39.240Z,11.80
2023-03-29T07:06:11.774Z,12.00
2023-03-29T07:08:43.840Z,12.10
2023-03-29T07:11:14.233Z,12.10
2023-03-29T07:13:43.136Z,12.20
2023-03-29T07:16:12.921Z,12.20
2023-03-29T07:18:44.118Z,12.30
2023-03-29T07:21:13.588Z,12.40
2023-03-29T07:23:42.296Z,12.50
2023-03-29T07:26:12.114Z,12.60
2023-03-29T07:28:40.660Z,12.70
2023-03-29T07:31:11.195Z,12.60
2023-03-29T07:33:39.999Z,12.80
2023-03-29T07:36:10.364Z,12.90
2023-03-29T07:38:38.968Z,12.80
2023-03-29T07:41:08.275Z,12.90
2023-03-29T07:43:36.721Z,13.00
2023-03-29T07:46:06.277Z,13.10
2023-03-29T07:48:37.194Z,13.20
2023-03-29T07:51:06.204Z,13.40
2023-03-29T07:53:38.575Z,13.50
2023-03-29T07:56:07.214Z,13.70
2023-03-29T07:58:35.908Z,13.90
2023-03-29T08:01:04.673Z,14.20
2023-03-29T08:03:33.435Z,14.60
2023-03-29T08:06:02.797Z,14.90
2023-03-29T08:08:31.250Z,15.20
2023-03-29T08:11:01.211Z,15.50
2023-03-29T08:13:29.775Z,15.80
2023-03-29T08:15:59.167Z,15.90
2023-03-29T08:18:27.724Z,16.10
2023-03-29T08:20:56.198Z,16.30
2023-03-29T08:23:24.624Z,16.40
2023-03-29T08:25:53.693Z,16.60
2023-03-29T08:28:23.557Z,16.70
2023-03-29T08:30:52.872Z,16.80
2023-03-29T08:33:21.482Z,16.90
2023-03-29T08:35:50.149Z,17.00
2023-03-29T08:38:18.575Z,17.00
2023-03-29T08:40:49.038Z,17.10
2023-03-29T08:43:32.417Z,17.20
2023-03-29T08:46:07.524Z,17.20
2023-03-29T08:48:37.146Z,17.30
2023-03-29T08:51:09.820Z,17.30
2023-03-29T08:53:44.270Z,17.40
2023-03-29T08:56:14.420Z,17.30
2023-03-29T08:58:44.715Z,17.30
2023-03-29T09:01:13.564Z,17.30
2023-03-29T09:03:45.300Z,17.20
2023-03-29T09:06:14.070Z,17.40
2023-03-29T09:08:43.449Z,17.50
2023-03-29T09:11:32.516Z,17.70
2023-03-29T09:14:09.663Z,17.70
2023-03-29T09:16:39.305Z,17.90
2023-03-29T09:19:12.401Z,18.10
2023-03-29T09:21:46.836Z,18.10
2023-03-29T09:24:30.199Z,18.20
2023-03-29T09:27:01.736Z,18.30
2023-03-29T09:29:37.919Z,18.30
2023-03-29T09:32:08.177Z,18.20
2023-03-29T09:34:38.981Z,18.10
2023-03-29T09:37:10.071Z,18.20
2023-03-29T09:39:39.237Z,18.40
2023-03-29T09:42:09.222Z,18.30
2023-03-29T09:44:41.551Z,18.30
2023-03-29T09:47:11.025Z,18.40
2023-03-29T09:49:41.367Z,18.20
2023-03-29T09:52:12.618Z,18.20
2023-03-29T09:54:41.239Z,18.10
2023-03-29T09:57:10.901Z,18.10
2023-03-29T09:59:40.738Z,18.20
2023-03-29T10:02:10.240Z,18.00
2023-03-29T10:04:39.241Z,17.90
2023-03-29T10:07:08.766Z,17.80
2023-03-29T10:09:37.226Z,18.00
2023-03-29T10:12:07.400Z,18.00
2023-03-29T10:14:37.176Z,18.00
2023-03-29T10:17:12.200Z,18.00
2023-03-29T10:19:48.319Z,17.90
2023-03-29T10:22:18.841Z,17.80
2023-03-29T10:24:51.371Z,17.50
2023-03-29T10:27:21.629Z,17.30
2023-03-29T10:29:50.589Z,17.30
2023-03-29T10:32:27.775Z,17.40
2023-03-29T10:35:02.649Z,17.40
2023-03-29T10:37:34.051Z,17.50
2023-03-29T10:40:02.628Z,17.40
2023-03-29T10:42:31.067Z,17.30
2023-03-29T10:45:00.481Z,17.30
2023-03-29T10:47:34.396Z,17.30
2023-03-29T10:50:06.884Z,17.30
2023-03-29T10:52:35.344Z,17.40
2023-03-29T10:55:03.793Z,17.30
2023-03-29T10:57:35.366Z,17.30
2023-03-29T11:00:07.804Z,17.40
2023-03-29T11:02:46.930Z,17.30
2023-03-29T11:05:27.296Z,17.30
2023-03-29T11:08:15.073Z,17.40
2023-03-29T11:10:48.229Z,17.50
2023-03-29T11:13:22.405Z,17.40
2023-03-29T11:15:57.647Z,17.40
2023-03-29T11:18:39.549Z,17.50
2023-03-29T11:21:12.589Z,17.50
2023-03-29T11:23:43.872Z,17.50
2023-03-29T11:26:16.691Z,17.70
2023-03-29T11:28:48.832Z,17.80
2023-03-29T11:31:20.749Z,17.70
2023-03-29T11:33:56.657Z,17.50
2023-03-29T11:36:30.397Z,17.40
2023-03-29T11:39:05.060Z,17.30
2023-03-29T11:41:34.990Z,17.40
2023-03-29T11:44:05.056Z,17.50
2023-03-29T11:46:34.914Z,17.50
2023-03-29T11:49:07.522Z,17.60
2023-03-29T11:51:39.136Z,17.60
2023-03-29T11:54:09.204Z,17.60
2023-03-29T11:56:39.143Z,17.50
2023-03-29T11:59:11.573Z,17.60
2023-03-29T12:01:43.400Z,17.60
2023-03-29T12:04:16.433Z,17.50
2023-03-29T12:06:47.679Z,17.40
2023-03-29T12:09:24.323Z,17.30
2023-03-29T12:11:55.646Z,17.20
2023-03-29T12:14:28.069Z,17.20
2023-03-29T12:17:01.031Z,17.10
2023-03-29T12:19:32.817Z,17.10
2023-03-29T12:22:01.751Z,17.30
2023-03-29T12:24:32.544Z,17.30
2023-03-29T12:27:08.463Z,17.40
2023-03-29T12:29:45.037Z,17.50
2023-03-29T12:32:23.070Z,17.50
2023-03-29T12:35:00.138Z,17.40
2023-03-29T12:37:36.057Z,17.30
2023-03-29T12:40:11.853Z,17.30
2023-03-29T12:42:47.384Z,17.40
2023-03-29T12:45:19.278Z,17.30
2023-03-29T12:47:48.734Z,17.30
2023-03-29T12:50:23.798Z,17.40
2023-03-29T12:52:53.133Z,17.50
2023-03-29T12:55:30.731Z,17.40
2023-03-29T12:58:02.732Z,17.30
2023-03-29T13:00:34.008Z,17.30
2023-03-29T13:03:03.992Z,17.40
2023-03-29T13:05:35.303Z,17.30
2023-03-29T13:08:20.681Z,17.30
2023-03-29T13:10:54.044Z,17.20
2023-03-29T13:13:25.015Z,17.40
2023-03-29T13:15:53.601Z,17.30
2023-03-29T13:18:32.299Z,17.30
2023-03-29T13:21:05.686Z,17.30
2023-03-29T13:23:41.387Z,17.20
2023-03-29T13:26:19.790Z,17.40
2023-03-29T13:28:57.931Z,17.30
2023-03-29T13:31:31.077Z,17.10
2023-03-29T13:34:03.396Z,17.10
2023-03-29T13:36:47.154Z,17.20
2023-03-29T13:39:17.449Z,17.10
2023-03-29T13:41:48.095Z,16.90
2023-03-29T13:44:25.681Z,17.00
2023-03-29T13:47:03.597Z,16.90
2023-03-29T13:49:33.434Z,16.80
2023-03-29T13:52:17.163Z,16.80
2023-03-29T13:54:51.922Z,16.80
2023-03-29T13:57:21.243Z,16.70
2023-03-29T13:59:52.990Z,16.70
2023-03-29T14:02:23.849Z,16.70
2023-03-29T14:04:53.530Z,16.50
2023-03-29T14:07:26.271Z,16.70
2023-03-29T14:09:56.748Z,16.60
2023-03-29T14:12:26.053Z,16.60
2023-03-29T14:14:59.245Z,16.50
2023-03-29T14:17:28.376Z,16.50
2023-03-29T14:19:58.901Z,16.50
2023-03-29T14:22:31.377Z,16.50
2023-03-29T14:25:03.028Z,16.50
2023-03-29T14:27:32.124Z,16.40
2023-03-29T14:30:01.124Z,16.40
2023-03-29T14:32:30.463Z,16.20
2023-03-29T14:34:59.188Z,16.00
2023-03-29T14:37:28.660Z,16.10
2023-03-29T14:39:57.775Z,16.20
2023-03-29T14:42:28.677Z,16.00
2023-03-29T14:44:59.199Z,15.90
2023-03-29T14:47:29.067Z,15.80
2023-03-29T14:50:00.676Z,15.90
2023-03-29T14:52:29.610Z,16.00
2023-03-29T14:54:59.926Z,16.10
2023-03-29T14:57:34.506Z,16.10
2023-03-29T15:00:13.394Z,16.10
2023-03-29T15:02:50.105Z,16.00
2023-03-29T15:05:25.523Z,16.00
2023-03-29T15:07:56.393Z,16.00
2023-03-29T15:10:24.942Z,16.00
2023-03-29T15:12:54.834Z,16.00
2023-03-29T15:15:24.934Z,15.70
2023-03-29T15:17:53.815Z,15.80
2023-03-29T15:20:24.358Z,15.70
2023-03-29T15:22:54.364Z,15.90
2023-03-29T15:25:23.166Z,15.80
2023-03-29T15:27:52.099Z,15.80
2023-03-29T15:30:30.525Z,15.60
2023-03-29T15:33:09.073Z,15.70
2023-03-29T15:35:38.092Z,15.50
2023-03-29T15:38:07.208Z,15.50
2023-03-29T15:40:35.709Z,15.60
2023-03-29T15:43:04.132Z,15.60
2023-03-29T15:45:33.960Z,15.60
2023-03-29T15:48:04.862Z,15.50
2023-03-29T15:50:34.119Z,15.50
2023-03-29T15:53:14.168Z,15.60
2023-03-29T15:55:44.868Z,15.60
2023-03-29T15:58:15.132Z,15.60
2023-03-29T16:00:49.677Z,15.50
2023-03-29T16:03:18.185Z,15.60
2023-03-29T16:05:47.089Z,15.60
2023-03-29T16:08:15.517Z,15.60
2023-03-29T16:10:44.906Z,15.60
2023-03-29T16:13:14.623Z,15.70
2023-03-29T16:15:43.517Z,15.70
2023-03-29T16:18:13.328Z,15.70
2023-03-29T16:20:41.885Z,15.60
2023-03-29T16:23:11.505Z,15.60
2023-03-29T16:25:40.854Z,15.70
2023-03-29T16:28:10.179Z,15.70
2023-03-29T16:30:38.785Z,15.70
2023-03-29T16:33:08.677Z,15.80
2023-03-29T16:35:40.108Z,15.80
2023-03-29T16:38:09.242Z,15.70
2023-03-29T16:40:38.407Z,15.70
2023-03-29T16:43:07.705Z,15.60
2023-03-29T16:45:36.367Z,15.60
2023-03-29T16:48:05.151Z,15.60
2023-03-29T16:50:33.924Z,15.40
2023-03-29T16:53:03.798Z,15.30
2023-03-29T16:55:32.422Z,15.10
2023-03-29T16:58:00.925Z,15.10
2023-03-29T17:00:29.372Z,15.10
2023-03-29T17:02:57.837Z,15.10
2023-03-29T17:05:26.514Z,15.10
2023-03-29T17:07:55.589Z,15.10
2023-03-29T17:10:25.504Z,15.00
2023-03-29T17:12:54.448Z,15.00
2023-03-29T17:15:23.147Z,14.90
2023-03-29T17:17:51.684Z,14.80
2023-03-29T17:20:20.353Z,14.80
2023-03-29T17:22:51.574Z,14.80
2023-03-29T17:25:20.007Z,14.70
2023-03-29T17:27:50.117Z,14.70
2023-03-29T17:30:18.731Z,14.70
2023-03-29T17:32:47.152Z,14.80
2023-03-29T17:35:15.703Z,14.70
2023-03-29T17:37:44.659Z,14.70
2023-03-29T17:40:14.201Z,14.70
2023-03-29T17:42:42.724Z,14.60
2023-03-29T17:45:12.874Z,14.70
2023-03-29T17:47:41.469Z,14.80
2023-03-29T17:50:11.188Z,14.70
2023-03-29T17:52:40.473Z,14.70
2023-03-29T17:55:11.256Z,14.60
2023-03-29T17:57:39.906Z,14.50
2023-03-29T18:00:10.652Z,14.50
2023-03-29T18:02:41.490Z,14.40
2023-03-29T18:05:10.407Z,14.30
2023-03-29T18:07:38.883Z,14.30
2023-03-29T18:10:08.528Z,14.30
2023-03-29T18:12:36.968Z,14.30
2023-03-29T18:15:06.361Z,14.40
2023-03-29T18:17:35.774Z,14.30
2023-03-29T18:20:11.223Z,14.30
2023-03-29T18:22:39.763Z,14.40
2023-03-29T18:25:09.557Z,14.20
2023-03-29T18:27:38.076Z,14.20
2023-03-29T18:30:08.652Z,14.10
2023-03-29T18:32:37.286Z,14.10
2023-03-29T18:35:07.774Z,14.10
2023-03-29T18:37:36.365Z,14.00
2023-03-29T18:40:08.078Z,14.00
2023-03-29T18:42:36.770Z,14.00
2023-03-29T18:45:05.544Z,14.00
2023-03-29T18:47:34.057Z,14.00
2023-03-29T18:50:02.859Z,14.00
2023-03-29T18:52:32.676Z,14.00
2023-03-29T18:55:01.107Z,14.00
2023-03-29T18:57:29.572Z,14.00
2023-03-29T18:59:58.020Z,13.90
2023-03-29T19:02:26.540Z,13.80
2023-03-29T19:04:55.103Z,13.70
2023-03-29T19:07:23.517Z,13.60
2023-03-29T19:09:53.453Z,13.60
2023-03-29T19:12:21.897Z,13.50
2023-03-29T19:14:50.423Z,13.40
2023-03-29T19:17:18.841Z,13.40
2023-03-29T19:19:47.274Z,13.30
2023-03-29T19:22:16.606Z,13.30
2023-03-29T19:24:45.062Z,13.30
2023-03-29T19:27:14.921Z,13.20
2023-03-29T19:29:43.330Z,13.20
2023-03-29T19:32:11.802Z,13.20
2023-03-29T19:34:40.547Z,13.20
2023-03-29T19:37:09.008Z,13.20
2023-03-29T19:39:37.357Z,13.20
2023-03-29T19:42:05.899Z,13.20
2023-03-29T19:44:38.265Z,13.10
2023-03-29T19:47:06.727Z,13.00
2023-03-29T19:49:36.463Z,13.00
2023-03-29T19:52:05.201Z,13.10
2023-03-29T19:54:33.636Z,13.10
2023-03-29T19:57:02.757Z,13.00
2023-03-29T19:59:32.157Z,13.00
2023-03-29T20:02:02.467Z,13.00
2023-03-29T20:04:33.361Z,12.90
2023-03-29T20:07:01.957Z,12.90
2023-03-29T20:09:30.371Z,12.90
2023-03-29T20:11:58.771Z,13.00
2023-03-29T20:14:27.320Z,12.90
2023-03-29T20:16:55.944Z,13.00
2023-03-29T20:19:25.719Z,13.00
2023-03-29T20:21:57.416Z,12.90
2023-03-29T20:24:26.306Z,12.90
2023-03-29T20:26:54.670Z,12.90
2023-03-29T20:29:23.089Z,12.90
2023-03-29T20:31:51.545Z,12.90
2023-03-29T20:34:20.142Z,12.80
2023-03-29T20:36:50.037Z,12.90
2023-03-29T20:39:18.982Z,12.90
2023-03-29T20:41:48.786Z,12.90
2023-03-29T20:44:18.482Z,13.00
2023-03-29T20:47:02.192Z,13.00
2023-03-29T20:49:37.128Z,12.90
2023-03-29T20:52:09.038Z,12.90
2023-03-29T20:54:38.964Z,12.80
2023-03-29T20:57:08.024Z,12.80
2023-03-29T20:59:38.031Z,12.80
2023-03-29T21:02:06.929Z,12.80
2023-03-29T21:04:36.115Z,12.80
2023-03-29T21:07:05.173Z,12.80
2023-03-29T21:09:36.125Z,12.80
2023-03-29T21:12:04.578Z,12.80
2023-03-29T21:14:33.393Z,12.70
2023-03-29T21:17:01.947Z,12.70
2023-03-29T21:19:30.488Z,12.60
2023-03-29T21:21:58.971Z,12.70
2023-03-29T21:24:27.369Z,12.70
2023-03-29T21:26:57.193Z,12.70
2023-03-29T21:29:25.735Z,12.80
2023-03-29T21:31:54.196Z,12.80
2023-03-29T21:34:22.609Z,12.70
2023-03-29T21:36:51.183Z,12.70
2023-03-29T21:39:19.669Z,12.70
2023-03-29T21:41:48.059Z,12.60
2023-03-29T21:44:17.829Z,12.60
2023-03-29T21:46:46.285Z,12.60
2023-03-29T21:49:14.783Z,12.50
2023-03-29T21:51:43.171Z,12.50
2023-03-29T21:54:12.009Z,12.40
2023-03-29T21:56:40.552Z,12.40
2023-03-29T21:59:08.945Z,12.40
2023-03-29T22:01:38.697Z,12.40
2023-03-29T22:04:07.161Z,12.40
2023-03-29T22:06:35.712Z,12.30
2023-03-29T22:09:05.160Z,12.30
2023-03-29T22:11:34.688Z,12.40
2023-03-29T22:14:03.089Z,12.40
2023-03-29T22:16:31.571Z,12.40
2023-03-29T22:19:01.394Z,12.40
2023-03-29T22:21:31.313Z,12.50
2023-03-29T22:24:00.623Z,12.50
2023-03-29T22:26:29.946Z,12.40
2023-03-29T22:28:59.240Z,12.40
2023-03-29T22:31:28.610Z,12.40
2023-03-29T22:33:58.451Z,12.40
2023-03-29T22:36:29.830Z,12.40
2023-03-29T22:38:58.593Z,12.40
2023-03-29T22:41:27.627Z,12.40
2023-03-29T22:43:57.045Z,12.40
2023-03-29T22:46:26.351Z,12.40
2023-03-29T22:48:54.940Z,12.40
2023-03-29T22:51:23.399Z,12.40
2023-03-29T22:53:53.229Z,12.40
2023-03-29T22:56:21.999Z,12.40
2023-03-29T22:58:50.668Z,12.40
2023-03-29T23:01:19.089Z,12.30
2023-03-29T23:03:47.528Z,12.30
2023-03-29T23:06:16.253Z,12.30
2023-03-29T23:08:44.667Z,12.30
2023-03-29T23:11:14.461Z,12.30
2023-03-29T23:13:42.879Z,12.30
2023-03-29T23:16:11.521Z,12.30
2023-03-29T23:18:39.978Z,12.30
2023-03-29T23:21:09.075Z,12.30
2023-03-29T23:23:38.652Z,12.30
2023-03-29T23:26:08.403Z,12.20
2023-03-29T23:28:38.355Z,12.20
2023-03-29T23:31:09.829Z,12.20
2023-03-29T23:33:40.416Z,12.20
2023-03-29T23:36:10.074Z,12.20
2023-03-29T23:38:39.712Z,12.20
2023-03-29T23:41:10.421Z,12.20
2023-03-29T23:43:41.497Z,12.20
2023-03-29T23:46:10.647Z,12.20
2023-03-29T23:48:39.224Z,12.10
2023-03-29T23:51:09.964Z,12.10
2023-03-29T23:53:38.582Z,12.20
2023-03-29T23:56:07.879Z,12.20
2023-03-29T23:58:37.360Z,12.10
